Impacts TAF Board
For situational awareness. Not to be used for flight planning purposes.
IDs:

KBWI - Baltimore-Washington, MD, US

Issued at 0521 UTC 20 Oct 2018
Updated at 0656 UTC 20 Oct 2018
Potential Impact None Slight Moderate High
Time<<21/07Z 21/08Z 21/09Z 21/10Z 21/11Z 21/12Z 21/13Z 21/14Z 21/15Z 21/16Z 21/17Z 21/18Z 21/19Z
Type PRVL PRVL PRVL PRVL PRVL
VIS >6 >6 >6 >6 >6
CIG -- -- 30 30 --
Cover SCT SCT BKN BKN SCT
FltCat VFR VFR MVFR MVFR VFR
WX -- -- -- -- --
WDir 290 290 310 310 310
WSpd 10 10 15 15 14
WGst 18 18 27 27 26
Raw TAF
KBWI 200521Z 2006/2112 22008KT P6SM -RA OVC100
  FM200700 22008KT P6SM -SHRA OVC050
  FM201000 22007KT P6SM OVC040
  FM201400 26007KT P6SM BKN040
  FM201900 27010G19KT P6SM SCT040
  FM202300 29010G18KT P6SM SCT250
  FM210900 31015G27KT P6SM BKN030
  FM211100 31014G26KT P6SM SCT140


METAR Board
Radar Display
Forecast Discussion
For situational awareness. Not to be used for flight planning purposes.